Time;durP1;ratioP1;P1;durP2;ratioP2;P2;SDS_P1;SDS_P2;PMS_P1;PMS_P2;Temp;Humidity;BMP_temperature;BMP_pressure;BME280_temperature;BME280_humidity;BME280_pressure;Samples;Min_cycle;Max_cycle;Signal;HPM_P1;HPM_P2
2022/02/27 00:00:13;;;;;;;40.20;13.60;;;;;;;2.36;100.00;99523.06;5043512;28;20126;-76
2022/02/27 00:02:40;;;;;;;39.78;12.82;;;;;;;2.32;100.00;99532.56;5040821;28;20049;-77
2022/02/27 00:05:08;;;;;;;37.72;12.60;;;;;;;2.41;100.00;99521.38;5042331;28;20279;-77
2022/02/27 00:07:35;;;;;;;34.70;13.85;;;;;;;2.56;100.00;99522.91;5036891;28;20048;-77
2022/02/27 00:10:03;;;;;;;42.97;13.38;;;;;;;2.64;100.00;99518.13;5046739;28;20099;-77
2022/02/27 00:12:30;;;;;;;44.22;13.23;;;;;;;2.77;100.00;99515.34;5046988;28;20132;-78
2022/02/27 00:14:56;;;;;;;40.72;13.52;;;;;;;2.99;100.00;99523.81;5045382;28;20118;-77
2022/02/27 00:17:23;;;;;;;33.40;12.50;;;;;;;3.05;100.00;99520.22;5056939;28;20096;-76
2022/02/27 00:19:49;;;;;;;27.77;10.68;;;;;;;2.99;100.00;99519.25;5050161;28;20076;-76
2022/02/27 00:22:16;;;;;;;34.00;10.65;;;;;;;3.02;100.00;99512.69;5050349;28;20083;-77
2022/02/27 00:24:43;;;;;;;40.50;12.32;;;;;;;3.05;100.00;99514.88;5056168;28;20044;-77
2022/02/27 00:27:09;;;;;;;38.17;12.30;;;;;;;3.12;100.00;99512.97;5070420;28;20098;-77
2022/02/27 00:29:36;;;;;;;43.70;13.27;;;;;;;3.02;100.00;99510.00;5069800;28;20075;-78
2022/02/27 00:32:03;;;;;;;39.88;12.63;;;;;;;3.10;100.00;99507.84;5069926;28;20053;-75
2022/02/27 00:34:31;;;;;;;38.40;13.38;;;;;;;3.08;100.00;99514.44;5070430;28;20083;-77
2022/02/27 00:36:57;;;;;;;32.42;12.52;;;;;;;3.10;100.00;99509.69;5071562;28;20049;-77
2022/02/27 00:39:24;;;;;;;35.33;13.10;;;;;;;3.00;100.00;99515.56;5053077;28;20428;-77
2022/02/27 00:41:50;;;;;;;40.58;12.50;;;;;;;2.90;100.00;99527.78;5050768;28;20111;-76
2022/02/27 00:44:19;;;;;;;40.28;12.85;;;;;;;2.95;100.00;99517.25;5053355;28;20041;-74
2022/02/27 00:46:45;;;;;;;35.28;13.00;;;;;;;2.93;100.00;99517.47;5057838;28;20053;-75
2022/02/27 00:49:12;;;;;;;33.47;12.60;;;;;;;3.13;100.00;99515.44;5057106;28;20152;-77
2022/02/27 00:51:39;;;;;;;39.90;13.00;;;;;;;3.30;100.00;99507.66;5051407;28;20075;-77
2022/02/27 00:54:07;;;;;;;37.92;12.73;;;;;;;3.30;100.00;99504.97;5049989;28;20497;-78
2022/02/27 00:56:34;;;;;;;51.40;13.57;;;;;;;3.38;100.00;99501.19;5050706;28;20053;-77
2022/02/27 00:59:00;;;;;;;38.97;12.50;;;;;;;2.74;100.00;99490.88;5049849;28;20064;-78
2022/02/27 01:01:27;;;;;;;35.33;12.40;;;;;;;2.78;100.00;99508.97;5050221;28;20052;-74
2022/02/27 01:03:53;;;;;;;34.00;11.23;;;;;;;3.00;100.00;99504.84;5048531;28;20048;-76
2022/02/27 01:06:20;;;;;;;40.30;11.93;;;;;;;3.13;100.00;99511.94;5051289;28;20068;-76
2022/02/27 01:08:47;;;;;;;44.30;12.15;;;;;;;3.43;100.00;99498.66;5051065;28;20057;-76
2022/02/27 02:00:17;;;;;;;26.77;9.43;;;;;;;2.23;100.00;99483.88;5027931;28;20072;-76
2022/02/27 02:02:45;;;;;;;24.08;9.60;;;;;;;2.18;100.00;99470.34;5036568;28;20571;-76
2022/02/27 02:05:13;;;;;;;26.50;9.10;;;;;;;2.02;100.00;99480.72;5047002;28;20053;-76
2022/02/27 02:07:41;;;;;;;29.05;10.05;;;;;;;2.01;100.00;99487.09;5049270;28;20053;-77
2022/02/27 02:10:09;;;;;;;27.73;9.93;;;;;;;1.89;100.00;99466.41;5048910;28;20059;-77
2022/02/27 02:12:36;;;;;;;31.67;9.80;;;;;;;1.92;100.00;99478.53;5048538;28;20644;-76
2022/02/27 02:15:02;;;;;;;33.67;10.38;;;;;;;1.64;100.00;99464.69;5051622;28;20122;-77
2022/02/27 02:17:29;;;;;;;29.40;9.30;;;;;;;1.61;100.00;99476.63;5048292;28;20045;-77
2022/02/27 02:19:56;;;;;;;24.52;9.52;;;;;;;1.65;100.00;99469.03;5046768;28;20102;-77
2022/02/27 02:22:23;;;;;;;28.48;10.00;;;;;;;1.61;100.00;99473.13;5043207;28;20098;-75
2022/02/27 02:24:49;;;;;;;28.20;9.05;;;;;;;1.68;100.00;99482.75;5049385;28;20037;-77
2022/02/27 02:27:16;;;;;;;31.20;9.15;;;;;;;1.67;100.00;99482.97;5050070;28;20106;-78
2022/02/27 02:29:43;;;;;;;27.77;9.30;;;;;;;1.61;100.00;99473.97;5048451;28;20137;-77
2022/02/27 02:32:10;;;;;;;33.00;9.05;;;;;;;1.66;100.00;99475.97;5046143;28;20094;-77
2022/02/27 02:34:36;;;;;;;27.45;9.25;;;;;;;1.66;100.00;99484.00;5049659;28;20705;-76
2022/02/27 02:37:03;;;;;;;23.85;8.73;;;;;;;1.57;100.00;99483.44;5050727;28;20428;-77
2022/02/27 02:39:30;;;;;;;33.53;9.63;;;;;;;1.60;100.00;99464.28;5050064;28;20045;-77
2022/02/27 02:41:58;;;;;;;26.40;9.30;;;;;;;1.78;100.00;99476.97;5048679;28;20053;-76
2022/02/27 02:44:25;;;;;;;34.20;9.18;;;;;;;1.76;100.00;99479.00;5048403;28;20510;-78
2022/02/27 02:46:55;;;;;;;25.13;8.60;;;;;;;1.64;100.00;99465.53;5049491;28;20091;-77
2022/02/27 02:49:25;;;;;;;27.77;8.80;;;;;;;1.62;100.00;99472.09;5047995;28;20497;-77
2022/02/27 02:51:52;;;;;;;33.47;9.20;;;;;;;1.49;100.00;99472.16;5049394;28;20057;-77
2022/02/27 02:54:18;;;;;;;33.42;9.20;;;;;;;1.43;100.00;99465.81;5051100;28;20107;-77
2022/02/27 02:56:45;;;;;;;25.73;8.98;;;;;;;1.39;100.00;99466.47;5053640;28;20542;-77
2022/02/27 02:59:13;;;;;;;28.30;9.95;;;;;;;1.24;100.00;99464.03;5050455;28;20695;-77
2022/02/27 03:01:39;;;;;;;36.63;9.57;;;;;;;1.40;100.00;99452.88;5050020;28;20044;-77
2022/02/27 03:04:06;;;;;;;29.77;9.32;;;;;;;1.45;100.00;99458.41;5047469;28;20124;-77
2022/02/27 03:06:33;;;;;;;35.78;13.05;;;;;;;1.36;100.00;99462.38;5050441;28;20073;-77
2022/02/27 03:09:03;;;;;;;43.05;11.27;;;;;;;1.47;100.00;99468.91;5048809;28;20045;-77
2022/02/27 03:11:29;;;;;;;35.88;10.20;;;;;;;1.52;100.00;99464.56;5047563;28;20057;-76
2022/02/27 03:14:00;;;;;;;29.45;10.18;;;;;;;1.55;100.00;99452.66;5048648;28;20084;-76
2022/02/27 03:16:28;;;;;;;41.83;11.98;;;;;;;1.62;100.00;99469.44;5049836;28;20094;-76
2022/02/27 03:18:56;;;;;;;34.30;10.20;;;;;;;1.68;100.00;99468.56;5049967;28;20053;-76
2022/02/27 03:21:22;;;;;;;37.60;10.85;;;;;;;1.57;100.00;99456.75;5051863;28;20073;-77
2022/02/27 03:23:52;;;;;;;29.90;10.93;;;;;;;1.79;100.00;99470.56;5050461;28;20049;-77
2022/02/27 03:26:21;;;;;;;40.35;12.20;;;;;;;1.91;100.00;99466.19;5048295;28;20136;-77
2022/02/27 03:28:48;;;;;;;29.83;10.38;;;;;;;2.02;100.00;99462.84;5047530;28;20163;-77
2022/02/27 03:31:15;;;;;;;30.95;10.40;;;;;;;2.17;100.00;99466.03;5042341;28;20053;-77
2022/02/27 03:33:42;;;;;;;28.88;10.75;;;;;;;2.28;100.00;99467.19;5025905;28;20056;-78
2022/02/27 03:36:09;;;;;;;34.90;11.20;;;;;;;2.25;100.00;99476.47;5028910;28;20049;-78
2022/02/27 03:38:36;;;;;;;29.05;10.73;;;;;;;2.47;100.00;99471.59;5027943;28;20663;-79
2022/02/27 03:41:03;;;;;;;32.50;10.73;;;;;;;2.37;100.00;99465.91;5027740;28;20083;-77
2022/02/27 03:43:29;;;;;;;30.88;10.02;;;;;;;2.38;100.00;99472.88;5026703;28;20443;-76
2022/02/27 03:45:55;;;;;;;28.17;9.70;;;;;;;2.05;100.00;99462.41;5028560;28;20100;-77
2022/02/27 03:48:22;;;;;;;28.27;10.43;;;;;;;2.39;100.00;99459.31;5025952;28;20661;-78
2022/02/27 03:50:49;;;;;;;34.50;10.75;;;;;;;2.49;100.00;99470.34;5027760;28;20084;-78
2022/02/27 03:53:15;;;;;;;27.42;9.90;;;;;;;2.51;100.00;99467.44;5027910;28;20468;-77
2022/02/27 03:55:42;;;;;;;30.60;10.52;;;;;;;2.27;100.00;99461.03;5040071;28;20049;-76
2022/02/27 03:58:08;;;;;;;24.25;9.75;;;;;;;2.22;100.00;99463.53;5065006;28;20509;-77
2022/02/27 04:00:35;;;;;;;27.00;10.05;;;;;;;2.23;100.00;99470.53;5051700;28;20405;-77
2022/02/27 04:03:02;;;;;;;28.63;9.60;;;;;;;2.22;100.00;99466.19;5042872;28;20045;-78
2022/02/27 04:05:29;;;;;;;38.08;11.68;;;;;;;2.01;100.00;99468.41;5051352;28;20523;-77
2022/02/27 04:07:55;;;;;;;43.65;13.05;;;;;;;2.12;100.00;99468.53;5052198;28;20641;-77
2022/02/27 04:10:22;;;;;;;36.45;12.07;;;;;;;2.08;100.00;99461.16;5051501;28;20465;-75
2022/02/27 04:12:48;;;;;;;40.53;13.40;;;;;;;2.05;100.00;99466.94;5051639;28;20095;-77
2022/02/27 04:15:15;;;;;;;36.90;12.18;;;;;;;2.05;100.00;99464.28;5051061;28;20110;-76
2022/02/27 04:17:41;;;;;;;38.50;12.43;;;;;;;2.01;100.00;99471.09;5051146;28;20080;-76
2022/02/27 04:20:09;;;;;;;43.35;13.93;;;;;;;2.00;100.00;99477.44;5051015;28;20400;-77
2022/02/27 04:22:35;;;;;;;32.80;13.00;;;;;;;1.98;100.00;99477.69;5050808;28;20553;-77
2022/02/27 04:25:03;;;;;;;35.55;12.05;;;;;;;1.91;100.00;99465.41;5050716;28;20076;-76
2022/02/27 04:27:29;;;;;;;43.95;12.65;;;;;;;1.85;100.00;99481.25;5051648;28;20598;-77
2022/02/27 04:29:56;;;;;;;39.15;13.10;;;;;;;1.73;100.00;99479.47;5050880;28;20143;-77
2022/02/27 04:32:22;;;;;;;37.28;12.30;;;;;;;1.64;100.00;99478.03;5049474;28;20053;-77
2022/02/27 04:34:49;;;;;;;33.42;13.02;;;;;;;1.68;100.00;99489.94;5050731;28;20084;-76
2022/02/27 04:37:15;;;;;;;34.90;12.80;;;;;;;1.55;100.00;99480.13;5051905;28;20053;-77
2022/02/27 04:39:42;;;;;;;30.75;12.13;;;;;;;1.55;100.00;99490.81;5051277;28;20053;-77
2022/02/27 04:42:09;;;;;;;38.30;12.93;;;;;;;1.55;100.00;99482.00;5049499;28;20048;-78
2022/02/27 04:44:35;;;;;;;42.33;13.18;;;;;;;1.44;100.00;99482.66;5050933;28;20053;-77
2022/02/27 04:47:02;;;;;;;43.35;13.70;;;;;;;1.44;100.00;99480.81;5057080;28;20052;-75
2022/02/27 04:49:31;;;;;;;36.78;13.45;;;;;;;1.38;100.00;99478.16;5049471;28;20461;-77
2022/02/27 04:51:57;;;;;;;38.70;12.70;;;;;;;1.18;100.00;99484.38;5050967;28;20152;-77
2022/02/27 04:54:24;;;;;;;46.45;14.60;;;;;;;1.15;100.00;99463.44;5051171;28;20099;-78
2022/02/27 04:56:50;;;;;;;45.58;15.00;;;;;;;1.30;100.00;99497.03;5051944;28;20578;-77
2022/02/27 04:59:17;;;;;;;36.22;13.85;;;;;;;1.27;100.00;99491.09;5050711;28;20085;-77
2022/02/27 05:01:43;;;;;;;40.47;13.77;;;;;;;1.15;100.00;99479.47;5052674;28;20083;-75
2022/02/27 05:04:10;;;;;;;47.50;15.88;;;;;;;1.33;100.00;99507.31;5050846;28;20053;-77
2022/02/27 05:06:37;;;;;;;43.08;14.95;;;;;;;1.45;100.00;99506.44;5052186;28;20114;-77
2022/02/27 05:09:05;;;;;;;44.42;13.82;;;;;;;1.46;100.00;99509.94;5054174;28;20056;-77
2022/02/27 05:11:31;;;;;;;38.13;14.85;;;;;;;1.56;100.00;99502.31;5061879;28;20229;-75
2022/02/27 05:13:58;;;;;;;43.97;14.52;;;;;;;1.59;100.00;99516.06;5057346;28;20049;-77
2022/02/27 05:16:25;;;;;;;44.85;15.60;;;;;;;1.59;100.00;99504.56;5053759;28;20068;-75
2022/02/27 05:18:52;;;;;;;39.30;14.75;;;;;;;1.63;100.00;99516.44;5053212;28;20060;-76
2022/02/27 05:21:20;;;;;;;50.60;14.70;;;;;;;1.55;100.00;99525.50;5052898;28;20099;-76
2022/02/27 05:23:48;;;;;;;45.42;15.68;;;;;;;1.50;100.00;99516.47;5052236;28;20118;-77
2022/02/27 05:26:14;;;;;;;43.72;14.45;;;;;;;1.46;100.00;99518.78;5052631;28;20041;-77
2022/02/27 05:28:46;;;;;;;41.67;13.43;;;;;;;1.48;100.00;99519.38;5049628;28;20052;-77
2022/02/27 05:31:13;;;;;;;41.20;13.95;;;;;;;1.38;100.00;99513.66;5050939;28;20110;-77
2022/02/27 05:33:41;;;;;;;36.63;13.45;;;;;;;1.30;100.00;99515.72;5050689;28;20057;-77
2022/02/27 05:36:08;;;;;;;45.95;14.40;;;;;;;1.25;100.00;99527.84;5051452;28;20049;-78
2022/02/27 05:38:35;;;;;;;47.83;15.45;;;;;;;1.30;100.00;99531.72;5050889;28;20051;-77
2022/02/27 05:41:02;;;;;;;45.20;15.27;;;;;;;1.19;100.00;99536.69;5050442;28;20056;-76
2022/02/27 05:43:29;;;;;;;40.75;14.60;;;;;;;1.15;100.00;99537.31;5050501;28;20077;-75
2022/02/27 05:45:55;;;;;;;44.30;14.82;;;;;;;1.09;100.00;99543.47;5050124;28;20068;-78
2022/02/27 05:48:23;;;;;;;153.75;47.40;;;;;;;1.03;100.00;99544.31;5046813;28;20045;-78
2022/02/27 05:50:50;;;;;;;42.90;16.02;;;;;;;0.98;100.00;99549.44;5049345;28;20493;-77
2022/02/27 05:53:17;;;;;;;50.20;16.98;;;;;;;0.85;100.00;99552.91;5049639;28;20053;-78
2022/02/27 05:55:44;;;;;;;43.45;15.73;;;;;;;0.78;100.00;99557.44;5050642;28;20053;-77
2022/02/27 05:58:11;;;;;;;53.92;15.30;;;;;;;0.70;100.00;99562.97;5049697;28;20057;-78
2022/02/27 06:00:37;;;;;;;48.13;15.38;;;;;;;0.76;100.00;99551.50;5049668;28;20049;-78
2022/02/27 06:03:04;;;;;;;49.45;16.88;;;;;;;0.85;100.00;99552.13;5048189;28;20060;-78
2022/02/27 06:05:31;;;;;;;49.38;18.00;;;;;;;0.85;100.00;99557.44;5051182;28;20080;-77
2022/02/27 06:07:58;;;;;;;59.80;17.13;;;;;;;0.68;100.00;99561.53;5051316;28;20053;-77
2022/02/27 06:10:24;;;;;;;46.03;15.55;;;;;;;0.62;100.00;99569.31;5047063;28;20064;-77
2022/02/27 06:12:51;;;;;;;41.88;14.68;;;;;;;0.58;100.00;99557.44;5043730;28;20045;-78
2022/02/27 06:15:18;;;;;;;48.55;16.33;;;;;;;0.59;100.00;99576.91;5054467;28;20033;-76
2022/02/27 06:17:45;;;;;;;55.53;14.90;;;;;;;0.62;100.00;99560.47;5047825;28;20046;-76
2022/02/27 06:20:12;;;;;;;42.03;14.38;;;;;;;0.76;100.00;99564.00;5053337;28;20073;-77
2022/02/27 06:22:43;;;;;;;46.28;15.93;;;;;;;0.76;100.00;99566.66;5046874;28;20087;-77
2022/02/27 06:25:11;;;;;;;89.60;25.77;;;;;;;0.67;100.00;99579.38;5042399;28;20053;-77
2022/02/27 06:27:43;;;;;;;85.50;29.38;;;;;;;0.72;100.00;99576.09;5050201;28;20084;-77
2022/02/27 06:30:12;;;;;;;130.00;38.28;;;;;;;0.69;100.00;99584.50;5047000;28;20063;-77
2022/02/27 06:32:39;;;;;;;126.55;36.63;;;;;;;0.69;100.00;99584.50;5046003;28;20051;-78
2022/02/27 06:35:08;;;;;;;135.63;39.50;;;;;;;0.73;100.00;99581.22;5042165;28;20055;-76
2022/02/27 06:37:35;;;;;;;117.13;36.10;;;;;;;0.74;100.00;99584.69;5049495;28;20048;-77
2022/02/27 06:40:04;;;;;;;100.70;35.10;;;;;;;0.86;100.00;99588.41;5048857;28;20280;-77
2022/02/27 06:42:31;;;;;;;106.50;34.97;;;;;;;1.03;100.00;99587.78;5048973;28;20049;-77
2022/02/27 06:44:57;;;;;;;109.25;32.97;;;;;;;1.09;100.00;99596.81;5048607;28;20075;-77
2022/02/27 06:47:24;;;;;;;68.18;24.27;;;;;;;1.16;100.00;99589.66;5048584;28;20053;-77
2022/02/27 06:49:51;;;;;;;91.40;27.58;;;;;;;1.31;100.00;99587.56;5050679;28;20053;-78
2022/02/27 06:52:17;;;;;;;85.18;29.33;;;;;;;1.33;100.00;99569.50;5041543;28;20400;-77
2022/02/27 06:54:44;;;;;;;114.55;38.03;;;;;;;1.39;100.00;99589.19;5031458;28;20114;-77
2022/02/27 06:57:10;;;;;;;102.28;34.33;;;;;;;1.42;100.00;99583.44;5029978;28;20083;-77
2022/02/27 06:59:37;;;;;;;108.90;32.17;;;;;;;1.43;100.00;99595.75;5028850;28;20099;-76
2022/02/27 07:02:04;;;;;;;100.13;31.02;;;;;;;1.45;100.00;99588.34;5028089;28;20057;-75
2022/02/27 07:04:30;;;;;;;94.07;31.25;;;;;;;1.59;100.00;99587.31;5027840;28;20465;-77
2022/02/27 07:06:57;;;;;;;84.13;25.83;;;;;;;1.57;100.00;99592.88;5043076;28;20388;-77
2022/02/27 07:09:24;;;;;;;68.70;22.35;;;;;;;1.61;100.00;99587.91;5062532;28;20112;-78
2022/02/27 07:11:52;;;;;;;69.75;23.02;;;;;;;1.81;100.00;99607.34;5057082;28;20049;-78
2022/02/27 07:14:20;;;;;;;61.92;20.05;;;;;;;2.00;100.00;99595.78;5047614;28;20057;-77
2022/02/27 07:16:47;;;;;;;60.10;21.73;;;;;;;2.06;100.00;99588.78;5054752;28;20047;-78
2022/02/27 07:19:15;;;;;;;73.97;23.88;;;;;;;2.13;100.00;99592.25;5067507;28;20049;-77
2022/02/27 07:21:43;;;;;;;72.00;25.42;;;;;;;2.27;100.00;99609.88;5068511;28;20053;-77
2022/02/27 07:24:09;;;;;;;81.80;25.13;;;;;;;2.30;100.00;99599.56;5062965;28;20075;-78
2022/02/27 07:26:36;;;;;;;74.38;26.02;;;;;;;2.45;100.00;99604.63;5030530;28;20081;-77
2022/02/27 07:29:03;;;;;;;68.20;23.45;;;;;;;2.55;100.00;99609.50;5037025;28;20484;-78
2022/02/27 07:31:30;;;;;;;71.40;24.02;;;;;;;2.55;100.00;99590.78;5035530;28;20049;-77
2022/02/27 07:34:00;;;;;;;71.53;24.13;;;;;;;2.71;100.00;99593.75;5040766;28;20064;-77
2022/02/27 07:36:27;;;;;;;67.30;23.23;;;;;;;2.76;100.00;99591.25;5042041;28;20075;-77
2022/02/27 07:38:53;;;;;;;81.68;24.90;;;;;;;2.91;100.00;99597.13;5045595;28;20310;-77
2022/02/27 07:41:21;;;;;;;74.05;25.73;;;;;;;3.08;100.00;99600.06;5039087;28;20057;-77
2022/02/27 07:43:58;;;;;;;68.43;22.90;;;;;;;3.16;100.00;99594.44;5036968;28;20049;-77
2022/02/27 07:46:24;;;;;;;60.90;21.60;;;;;;;3.35;100.00;99587.28;5038381;28;20140;-77
2022/02/27 07:48:51;;;;;;;54.28;18.50;;;;;;;3.42;100.00;99588.03;5038639;28;20048;-77
2022/02/27 07:51:23;;;;;;;48.50;17.98;;;;;;;3.65;100.00;99586.34;5038062;28;20112;-74
2022/02/27 07:53:50;;;;;;;44.70;17.10;;;;;;;3.69;100.00;99597.44;5036200;28;20083;-76
2022/02/27 07:56:16;;;;;;;42.22;15.38;;;;;;;3.77;100.00;99587.25;5048528;28;20107;-77
2022/02/27 07:58:43;;;;;;;40.17;14.60;;;;;;;3.67;100.00;99567.38;5042011;28;20424;-77
2022/02/27 08:01:10;;;;;;;37.47;13.55;;;;;;;4.01;100.00;99582.03;5045636;28;20453;-78
2022/02/27 08:03:37;;;;;;;44.30;12.90;;;;;;;4.03;100.00;99580.75;5055290;28;20673;-77
2022/02/27 08:06:04;;;;;;;37.67;14.07;;;;;;;4.24;100.00;99585.66;5054706;28;20052;-76
2022/02/27 08:08:33;;;;;;;36.90;12.60;;;;;;;4.19;100.00;99584.69;5055200;28;20488;-77
2022/02/27 08:11:08;;;;;;;38.80;13.30;;;;;;;4.51;100.00;99587.97;5055844;28;20080;-76
2022/02/27 08:13:35;;;;;;;30.85;11.98;;;;;;;4.50;100.00;99589.84;5047309;28;20082;-77
2022/02/27 08:16:01;;;;;;;32.33;12.25;;;;;;;4.41;100.00;99569.75;5049805;28;20100;-78
2022/02/27 08:18:29;;;;;;;27.08;12.05;;;;;;;4.84;100.00;99581.09;5054043;28;20509;-78
2022/02/27 08:20:56;;;;;;;32.85;11.63;;;;;;;4.86;100.00;99576.31;5054764;28;20143;-79
2022/02/27 08:23:23;;;;;;;25.95;10.48;;;;;;;4.92;100.00;99591.50;5064217;28;20064;-79
2022/02/27 08:25:54;;;;;;;23.73;9.88;;;;;;;4.96;100.00;99586.47;5052039;28;20053;-77
2022/02/27 08:28:28;;;;;;;29.88;9.70;;;;;;;5.02;100.00;99583.69;5038871;28;20060;-78
2022/02/27 08:30:57;;;;;;;31.15;10.88;;;;;;;5.38;100.00;99589.91;5036335;28;20057;-78
2022/02/27 08:33:24;;;;;;;30.40;10.13;;;;;;;5.52;100.00;99594.78;5048602;28;20059;-78
2022/02/27 08:35:52;;;;;;;28.77;9.95;;;;;;;5.57;100.00;99594.09;5048017;28;20543;-76
2022/02/27 08:38:20;;;;;;;21.17;9.27;;;;;;;5.79;100.00;99584.38;5041187;28;20054;-76
2022/02/27 08:40:48;;;;;;;24.15;9.40;;;;;;;5.40;100.00;99591.28;5048482;28;20057;-78
2022/02/27 08:43:15;;;;;;;25.00;9.25;;;;;;;5.62;100.00;99594.22;5046478;28;20538;-77
2022/02/27 08:45:42;;;;;;;18.65;8.77;;;;;;;6.03;100.00;99587.88;5046189;28;20084;-77
2022/02/27 08:48:08;;;;;;;26.65;7.93;;;;;;;6.01;100.00;99590.78;5037135;28;20141;-77
2022/02/27 08:50:35;;;;;;;20.38;8.27;;;;;;;6.08;100.00;99585.28;5042541;28;20045;-78
2022/02/27 08:53:01;;;;;;;22.73;8.57;;;;;;;6.10;100.00;99593.94;5045888;28;20053;-77
2022/02/27 08:55:29;;;;;;;19.27;8.35;;;;;;;6.23;100.00;99581.03;5047153;28;20045;-77
2022/02/27 08:57:56;;;;;;;17.67;7.32;;;;;;;6.31;100.00;99585.22;5031455;28;20053;-81
2022/02/27 09:00:22;;;;;;;20.52;7.43;;;;;;;6.53;100.00;99578.09;5042900;28;20049;-78
2022/02/27 09:02:49;;;;;;;17.45;6.93;;;;;;;6.50;100.00;99584.00;5055562;28;20060;-78
2022/02/27 09:05:16;;;;;;;16.85;7.25;;;;;;;6.40;100.00;99585.66;5049133;28;20053;-76
2022/02/27 09:07:44;;;;;;;19.10;7.53;;;;;;;6.55;100.00;99585.94;5041024;28;20449;-79
2022/02/27 09:10:15;;;;;;;17.48;7.28;;;;;;;6.53;100.00;99585.38;5032876;28;20063;-80
2022/02/27 09:12:44;;;;;;;17.50;6.93;;;;;;;6.73;100.00;99583.06;5032200;28;20449;-78
2022/02/27 09:15:11;;;;;;;17.92;6.85;;;;;;;7.04;100.00;99579.84;5050013;28;20107;-79
2022/02/27 09:17:38;;;;;;;15.82;6.60;;;;;;;7.20;100.00;99591.66;5051354;28;20429;-78
2022/02/27 09:20:06;;;;;;;15.07;6.80;;;;;;;7.18;100.00;99585.69;5037049;28;20068;-77
2022/02/27 09:22:33;;;;;;;16.40;6.40;;;;;;;7.41;100.00;99593.59;5043530;28;20110;-77
2022/02/27 09:25:00;;;;;;;19.55;6.55;;;;;;;7.84;100.00;99587.50;5044860;28;20152;-79
2022/02/27 09:27:26;;;;;;;17.90;6.63;;;;;;;7.95;89.92;99587.38;5041645;28;20057;-79
2022/02/27 09:29:53;;;;;;;13.90;6.15;;;;;;;7.79;86.89;99587.44;5038459;28;20152;-78
2022/02/27 09:32:21;;;;;;;17.23;6.10;;;;;;;8.15;81.25;99592.22;5036139;28;20563;-75
2022/02/27 09:34:47;;;;;;;16.80;6.03;;;;;;;8.84;73.74;99590.59;5034915;28;20383;-77
2022/02/27 09:37:14;;;;;;;12.68;5.63;;;;;;;9.21;64.27;99585.25;5036696;28;20076;-77
2022/02/27 09:39:41;;;;;;;11.30;5.30;;;;;;;10.18;61.92;99577.47;5034046;28;20083;-75
2022/02/27 09:42:07;;;;;;;18.70;5.93;;;;;;;10.47;57.39;99572.44;5035110;28;20057;-76
2022/02/27 09:44:40;;;;;;;16.02;5.50;;;;;;;11.61;54.60;99580.94;5036336;28;20049;-76
2022/02/27 09:47:11;;;;;;;10.63;4.93;;;;;;;12.42;51.94;99583.38;5034586;28;20048;-78
2022/02/27 09:49:40;;;;;;;15.90;7.38;;;;;;;12.56;50.24;99570.84;5036569;28;20073;-78
2022/02/27 09:52:07;;;;;;;21.63;9.23;;;;;;;11.60;49.73;99575.75;5033905;28;20077;-79
2022/02/27 09:54:34;;;;;;;13.48;6.07;;;;;;;12.04;47.68;99579.47;5037102;28;20557;-79
2022/02/27 09:57:01;;;;;;;8.73;4.07;;;;;;;12.38;44.23;99572.28;5045437;28;20040;-78
2022/02/27 09:59:27;;;;;;;11.80;4.60;;;;;;;13.38;45.27;99578.16;5047046;28;20344;-78
2022/02/27 10:02:02;;;;;;;10.52;4.28;;;;;;;13.59;44.90;99574.16;5038112;28;20466;-77
2022/02/27 10:04:40;;;;;;;10.95;4.57;;;;;;;13.77;43.81;99569.06;5035545;28;20049;-77
2022/02/27 10:07:08;;;;;;;10.82;4.47;;;;;;;14.56;43.11;99563.78;5037372;28;20050;-79
2022/02/27 10:09:35;;;;;;;8.70;4.28;;;;;;;14.93;41.15;99563.78;5033423;28;20049;-79
2022/02/27 10:12:31;;;;;;;9.48;3.88;;;;;;;15.48;40.40;99558.56;5033605;28;20468;-77
2022/02/27 10:15:08;;;;;;;9.23;4.43;;;;;;;15.86;41.17;99559.22;5034740;28;20563;-78
2022/02/27 10:17:39;;;;;;;5.72;3.40;;;;;;;15.62;40.84;99553.09;5048527;28;20044;-79
2022/02/27 10:20:09;;;;;;;9.48;4.07;;;;;;;14.46;40.08;99560.38;5059501;28;20057;-76
2022/02/27 10:22:39;;;;;;;9.60;3.90;;;;;;;15.09;41.24;99553.44;5041195;28;20103;-78
2022/02/27 10:25:11;;;;;;;7.35;3.80;;;;;;;14.74;41.10;99557.50;5036408;28;20988;-77
2022/02/27 10:27:48;;;;;;;7.93;4.00;;;;;;;15.46;40.61;99561.56;5032801;28;20138;-78
2022/02/27 10:30:18;;;;;;;12.05;4.90;;;;;;;13.33;43.58;99561.06;5034390;28;20049;-78
2022/02/27 10:32:46;;;;;;;9.07;4.28;;;;;;;14.02;41.83;99553.25;5034077;28;20053;-78
2022/02/27 10:35:40;;;;;;;10.02;3.85;;;;;;;14.07;42.85;99563.28;5040751;28;20053;-78
2022/02/27 10:38:13;;;;;;;12.32;4.68;;;;;;;13.78;41.80;99562.53;5040279;28;20524;-79
2022/02/27 10:40:44;;;;;;;10.43;4.45;;;;;;;12.62;42.13;99550.66;5035061;28;20053;-77
2022/02/27 10:43:12;;;;;;;9.90;4.32;;;;;;;13.84;42.43;99556.75;5031891;28;20048;-78
2022/02/27 10:45:39;;;;;;;9.60;4.53;;;;;;;15.54;39.70;99560.88;5036319;28;20048;-78
2022/02/27 10:48:17;;;;;;;7.05;3.88;;;;;;;14.37;40.63;99551.25;5050900;28;20135;-77
2022/02/27 10:50:44;;;;;;;9.90;4.30;;;;;;;13.36;42.25;99564.03;5046041;28;20052;-77
2022/02/27 10:53:15;;;;;;;9.13;4.53;;;;;;;13.88;42.13;99557.81;5045961;28;20122;-78
2022/02/27 10:55:42;;;;;;;10.85;4.80;;;;;;;13.52;42.05;99562.00;5045688;28;20171;-76
2022/02/27 10:58:09;;;;;;;10.23;4.28;;;;;;;11.58;45.14;99554.34;5043221;28;20451;-78
2022/02/27 11:00:36;;;;;;;11.95;4.53;;;;;;;11.90;46.21;99567.56;5036962;28;20049;-75
2022/02/27 11:03:08;;;;;;;8.32;4.20;;;;;;;12.72;45.81;99555.25;5039096;28;20059;-77
2022/02/27 11:05:41;;;;;;;12.23;4.82;;;;;;;11.94;45.94;99557.81;5040821;28;20107;-77
2022/02/27 11:08:11;;;;;;;11.50;4.82;;;;;;;11.53;46.67;99553.53;5037779;28;20485;-78
2022/02/27 11:10:40;;;;;;;9.82;4.90;;;;;;;10.47;48.59;99539.94;5043770;28;20519;-78
2022/02/27 11:13:10;;;;;;;11.48;4.35;;;;;;;10.20;47.16;99550.13;5042711;28;20134;-77
2022/02/27 11:15:41;;;;;;;12.95;4.68;;;;;;;10.32;48.27;99542.63;5032609;28;20056;-79
2022/02/27 11:18:08;;;;;;;10.30;4.72;;;;;;;10.06;50.27;99547.09;5033585;28;20048;-78
2022/02/27 11:20:34;;;;;;;13.05;4.65;;;;;;;9.70;50.16;99534.47;5037680;28;20106;-77
2022/02/27 11:23:01;;;;;;;9.30;4.60;;;;;;;9.72;50.68;99549.38;5041755;28;20072;-76
2022/02/27 11:25:29;;;;;;;12.73;4.55;;;;;;;9.37;51.52;99552.66;5024407;28;20494;-78
2022/02/27 11:28:03;;;;;;;9.57;4.50;;;;;;;9.80;49.66;99539.94;5045327;28;20122;-77
2022/02/27 11:30:33;;;;;;;11.38;4.55;;;;;;;9.56;50.00;99544.13;5026751;28;20119;-79
2022/02/27 11:33:05;;;;;;;11.02;4.38;;;;;;;9.56;50.63;99534.13;5037135;28;20129;-78
2022/02/27 11:35:43;;;;;;;11.52;4.53;;;;;;;9.72;50.96;99532.31;5043566;28;20057;-78
2022/02/27 11:38:15;;;;;;;10.82;4.13;;;;;;;9.80;50.86;99521.81;5043303;28;20144;-78
2022/02/27 11:40:56;;;;;;;12.50;4.03;;;;;;;9.55;51.98;99545.22;5045272;28;20057;-78
2022/02/27 11:43:38;;;;;;;9.73;3.83;;;;;;;12.74;45.75;99528.59;5041852;28;20053;-78
2022/02/27 11:46:07;;;;;;;8.30;4.07;;;;;;;15.81;38.61;99519.16;5045391;28;20519;-76
2022/02/27 11:48:56;;;;;;;8.82;4.07;;;;;;;17.90;34.12;99512.03;5043425;28;20092;-77
2022/02/27 11:51:41;;;;;;;7.35;3.65;;;;;;;18.18;35.39;99512.59;5044623;28;20496;-75
2022/02/27 11:54:12;;;;;;;7.68;3.50;;;;;;;17.82;35.31;99513.63;5041032;28;20390;-76
2022/02/27 11:56:40;;;;;;;7.13;3.67;;;;;;;17.80;34.55;99512.31;5041465;28;20053;-77
2022/02/27 11:59:09;;;;;;;7.18;3.45;;;;;;;18.12;34.19;99513.88;5033277;28;20105;-76
2022/02/27 12:01:47;;;;;;;6.43;3.08;;;;;;;20.78;31.72;99497.56;5027828;28;20057;-75
2022/02/27 12:04:20;;;;;;;6.45;3.70;;;;;;;19.04;33.15;99497.03;5034517;28;20051;-78
2022/02/27 12:06:59;;;;;;;5.60;3.70;;;;;;;19.26;31.39;99496.84;5042517;28;20053;-77
2022/02/27 12:09:25;;;;;;;6.60;3.78;;;;;;;16.72;35.35;99495.38;5037456;28;20060;-77
2022/02/27 12:11:52;;;;;;;6.32;3.90;;;;;;;14.80;36.98;99496.34;5042839;28;20056;-76
2022/02/27 12:14:19;;;;;;;11.63;4.13;;;;;;;15.51;36.81;99486.97;5042224;28;20080;-77